Time;durP1;ratioP1;P1;durP2;ratioP2;P2;SDS_P1;SDS_P2;PMS_P1;PMS_P2;Temp;Humidity;BMP_temperature;BMP_pressure;BME280_temperature;BME280_humidity;BME280_pressure;Samples;Min_cycle;Max_cycle;Signal;HPM_P1;HPM_P2
2022/09/16 00:00:58;;;;;;;11.43;8.47;;;23.40;99.90;;;;;;5017154;28;20269;-96
2022/09/16 00:03:33;;;;;;;12.83;8.20;;;23.20;99.90;;;;;;5016718;28;20210;-96
2022/09/16 00:19:32;;;;;;;12.17;8.17;;;21.70;99.90;;;;;;5617665;23;20244;-96
2022/09/16 00:22:04;;;;;;;10.47;8.43;;;21.70;99.90;;;;;;5054721;28;20205;-96
2022/09/16 00:24:36;;;;;;;10.67;8.33;;;21.50;99.90;;;;;;5054896;28;20223;-96
2022/09/16 00:27:11;;;;;;;10.93;7.90;;;21.60;99.90;;;;;;5039121;28;20263;-97
2022/09/16 00:29:45;;;;;;;12.03;8.40;;;21.80;99.90;;;;;;5055470;28;20212;-96
2022/09/16 00:32:19;;;;;;;18.23;8.57;;;21.80;99.90;;;;;;5056074;28;20197;-96
2022/09/16 00:34:54;;;;;;;13.43;8.83;;;21.50;99.90;;;;;;5054953;28;20213;-96
2022/09/16 00:37:30;;;;;;;16.50;8.23;;;21.30;99.90;;;;;;5037081;28;20231;-96
2022/09/16 00:40:05;;;;;;;10.10;7.77;;;21.30;99.90;;;;;;5042466;28;20189;-96
2022/09/16 00:42:40;;;;;;;11.27;8.00;;;21.30;99.90;;;;;;5047850;28;20236;-96
2022/09/16 00:45:18;;;;;;;11.33;8.50;;;21.10;99.90;;;;;;5038766;28;20252;-96
2022/09/16 00:47:55;;;;;;;12.23;7.80;;;21.00;99.90;;;;;;5022272;28;20252;-96
2022/09/16 01:04:05;;;;;;;10.53;7.87;;;20.50;99.90;;;;;;5941926;23;20193;-96
2022/09/16 01:06:41;;;;;;;13.43;8.20;;;20.60;99.90;;;;;;5047512;28;20253;-96
2022/09/16 01:09:15;;;;;;;13.10;9.40;;;20.50;99.90;;;;;;5035691;28;20209;-96
2022/09/16 01:11:49;;;;;;;12.93;8.40;;;20.40;99.90;;;;;;5032445;28;20215;-96
2022/09/16 01:17:22;;;;;;;13.20;8.97;;;20.40;99.90;;;;;;5051327;28;20205;-96
2022/09/16 01:20:31;;;;;;;72.33;13.73;;;20.30;99.90;;;;;;5054368;28;20209;-96
2022/09/16 01:33:54;;;;;;;13.63;9.70;;;20.20;99.90;;;;;;6047413;22;2447676;-96
2022/09/16 01:36:37;;;;;;;9.87;8.87;;;19.70;99.90;;;;;;6119614;23;20194;-96
2022/09/16 01:39:22;;;;;;;13.10;9.37;;;19.60;99.90;;;;;;6131196;23;20174;-96
2022/09/16 01:42:08;;;;;;;11.57;8.80;;;19.50;99.90;;;;;;6130730;23;20222;-95
2022/09/16 01:44:47;;;;;;;12.83;8.33;;;19.40;99.90;;;;;;6131455;23;20190;-96
2022/09/16 01:47:33;;;;;;;11.90;8.20;;;19.40;99.90;;;;;;6127481;23;20182;-96
2022/09/16 01:50:19;;;;;;;11.27;7.90;;;19.30;99.90;;;;;;6123966;23;20174;-96
2022/09/16 01:53:00;;;;;;;11.33;8.80;;;19.20;99.90;;;;;;6124689;23;20586;-96
2022/09/16 01:55:39;;;;;;;10.43;8.27;;;19.20;99.90;;;;;;6124094;23;20249;-96
2022/09/16 01:58:18;;;;;;;9.73;8.20;;;19.10;99.90;;;;;;6123958;23;20167;-96
2022/09/16 02:00:52;;;;;;;13.63;9.10;;;18.90;99.90;;;;;;6115080;23;20175;-96
2022/09/16 02:03:27;;;;;;;11.57;8.30;;;18.90;99.90;;;;;;6121229;23;20258;-96
2022/09/16 02:06:07;;;;;;;10.03;8.47;;;18.80;99.90;;;;;;6111057;23;20183;-96
2022/09/16 02:08:45;;;;;;;10.27;8.10;;;18.70;99.90;;;;;;6116411;23;20237;-96
2022/09/16 02:11:19;;;;;;;11.80;8.70;;;18.60;99.90;;;;;;6119113;23;20171;-96
2022/09/16 02:13:54;;;;;;;10.67;8.67;;;18.50;99.90;;;;;;6123024;23;20175;-96
2022/09/16 02:16:31;;;;;;;11.00;8.47;;;18.40;99.90;;;;;;6129208;23;20166;-96
2022/09/16 02:19:11;;;;;;;11.67;8.87;;;18.30;99.90;;;;;;6123809;23;20178;-96
2022/09/16 02:21:47;;;;;;;11.23;8.67;;;18.20;99.90;;;;;;6128094;23;20205;-96
2022/09/16 02:24:22;;;;;;;10.87;8.83;;;18.10;99.90;;;;;;6130596;23;20222;-96
2022/09/16 02:26:59;;;;;;;11.00;9.27;;;18.00;99.90;;;;;;6128105;23;20194;-96
2022/09/16 02:29:37;;;;;;;14.50;9.10;;;17.90;99.90;;;;;;6124863;23;20194;-96
2022/09/16 02:32:11;;;;;;;12.20;9.00;;;17.80;99.90;;;;;;6129117;23;20220;-96
2022/09/16 02:34:46;;;;;;;13.43;9.40;;;17.60;99.90;;;;;;6123314;23;20245;-96
2022/09/16 02:37:23;;;;;;;11.57;8.60;;;17.60;99.90;;;;;;6124419;23;20193;-96
2022/09/16 02:40:00;;;;;;;12.80;8.97;;;17.50;99.90;;;;;;6123807;23;20223;-96
2022/09/16 02:42:35;;;;;;;13.23;8.93;;;17.40;99.90;;;;;;6123544;23;20198;-96
2022/09/16 02:45:08;;;;;;;12.13;9.17;;;17.40;99.90;;;;;;6101224;23;20190;-96
2022/09/16 02:47:48;;;;;;;10.90;9.50;;;17.30;99.90;;;;;;6122712;23;20187;-96
2022/09/16 02:50:27;;;;;;;12.00;9.13;;;17.30;99.90;;;;;;6122840;23;20181;-96
2022/09/16 02:53:03;;;;;;;13.63;9.00;;;17.20;99.90;;;;;;6122359;23;20232;-96
2022/09/16 02:55:40;;;;;;;14.50;8.93;;;17.20;99.90;;;;;;6118163;23;20254;-96
2022/09/16 02:58:12;;;;;;;11.03;8.13;;;17.20;99.90;;;;;;6116091;23;20171;-96
2022/09/16 03:00:49;;;;;;;12.43;8.53;;;17.10;99.90;;;;;;6116199;23;20179;-96
2022/09/16 03:03:21;;;;;;;10.17;8.07;;;17.10;99.90;;;;;;6114017;23;20218;-96
2022/09/16 03:06:25;;;;;;;13.57;7.67;;;17.10;99.90;;;;;;6087251;23;20190;-96
2022/09/16 03:09:01;;;;;;;10.07;6.97;;;17.00;99.90;;;;;;6112132;23;20179;-96
2022/09/16 03:11:54;;;;;;;12.43;7.20;;;17.00;99.90;;;;;;6112598;23;20190;-96
2022/09/16 03:14:56;;;;;;;8.43;7.30;;;16.90;99.90;;;;;;6102207;23;20185;-93
2022/09/16 03:17:49;;;;;;;10.60;6.93;;;16.90;99.90;;;;;;6119296;23;20244;-96
2022/09/16 03:23:09;;;;;;;8.50;6.03;;;16.80;99.90;;;;;;6093765;23;20254;-96
2022/09/16 03:25:58;;;;;;;8.40;5.80;;;16.70;99.90;;;;;;6143889;23;20178;-96
2022/09/16 03:28:39;;;;;;;9.00;6.23;;;16.60;99.90;;;;;;6098906;23;20277;-96
2022/09/16 03:33:53;;;;;;;7.93;6.00;;;16.50;99.90;;;;;;6057000;23;20207;-96
2022/09/16 03:36:33;;;;;;;10.03;6.03;;;16.40;99.90;;;;;;6062095;23;20195;-96
2022/09/16 03:39:09;;;;;;;10.13;5.97;;;16.40;99.90;;;;;;6084975;23;20365;-96
2022/09/16 03:41:44;;;;;;;8.17;6.07;;;16.30;99.90;;;;;;6086977;23;20211;-96
2022/09/16 03:44:15;;;;;;;7.67;5.23;;;16.20;99.90;;;;;;6087631;23;20195;-96
2022/09/16 03:46:50;;;;;;;11.13;5.00;;;16.10;99.90;;;;;;6063184;23;20200;-96
2022/09/16 03:49:25;;;;;;;7.60;5.23;;;16.20;99.90;;;;;;6065559;23;20183;-96
2022/09/16 03:51:57;;;;;;;9.30;5.13;;;16.10;99.90;;;;;;6092221;23;20178;-96
2022/09/16 03:54:30;;;;;;;9.57;5.00;;;16.10;99.90;;;;;;6088391;23;20194;-96
2022/09/16 03:57:05;;;;;;;5.13;4.27;;;16.00;99.90;;;;;;6089013;23;20232;-96
2022/09/16 03:59:38;;;;;;;6.07;4.23;;;16.00;99.90;;;;;;6087883;23;20180;-96
2022/09/16 04:02:11;;;;;;;10.53;4.23;;;16.00;99.90;;;;;;6087369;23;20186;-96
2022/09/16 04:04:44;;;;;;;7.87;4.27;;;16.10;99.90;;;;;;6090814;23;20203;-96
2022/09/16 04:07:16;;;;;;;5.77;4.17;;;16.00;99.90;;;;;;6089156;23;20184;-96
2022/09/16 04:09:47;;;;;;;6.43;4.23;;;16.00;99.90;;;;;;6089271;23;20184;-96
2022/09/16 04:12:23;;;;;;;4.40;3.70;;;16.00;99.90;;;;;;6062272;23;20195;-96
2022/09/16 04:14:55;;;;;;;7.37;3.87;;;16.10;99.90;;;;;;6090729;23;20168;-96
2022/09/16 04:17:33;;;;;;;8.40;4.00;;;16.00;99.90;;;;;;6068818;23;20179;-96
2022/09/16 04:20:07;;;;;;;6.07;4.20;;;16.00;99.90;;;;;;6092960;23;20186;-96
2022/09/16 04:22:40;;;;;;;5.40;3.60;;;16.00;99.90;;;;;;6088833;23;20211;-96
2022/09/16 04:25:14;;;;;;;6.73;3.57;;;16.00;99.90;;;;;;6067414;23;20179;-96
2022/09/16 04:27:51;;;;;;;5.77;3.80;;;16.10;99.90;;;;;;6089612;23;20183;-96
2022/09/16 04:30:24;;;;;;;5.07;3.50;;;16.00;99.90;;;;;;6063274;23;20163;-96
2022/09/16 04:33:01;;;;;;;6.67;3.47;;;15.90;99.90;;;;;;6091020;23;20183;-96
2022/09/16 04:35:33;;;;;;;5.20;3.40;;;15.90;99.90;;;;;;6091819;23;20243;-96
2022/09/16 04:38:06;;;;;;;6.43;3.50;;;15.90;99.90;;;;;;6091221;23;20255;-96
2022/09/16 04:40:40;;;;;;;4.33;3.20;;;15.90;99.90;;;;;;6094476;23;20191;-96
2022/09/16 04:43:16;;;;;;;4.40;3.90;;;15.90;99.90;;;;;;6069555;23;20271;-94
2022/09/16 04:45:48;;;;;;;7.47;4.00;;;15.90;99.90;;;;;;6070296;23;20191;-96
2022/09/16 04:48:22;;;;;;;5.30;3.73;;;15.90;99.90;;;;;;6094956;23;20192;-96
2022/09/16 04:50:56;;;;;;;7.37;4.07;;;15.90;99.90;;;;;;6094373;23;20174;-96
2022/09/16 04:53:28;;;;;;;5.53;3.50;;;15.90;99.90;;;;;;6094472;23;20183;-96
2022/09/16 04:56:07;;;;;;;6.43;3.87;;;15.90;99.90;;;;;;6094706;23;20156;-97
2022/09/16 04:58:45;;;;;;;6.03;3.03;;;15.90;99.90;;;;;;6070743;23;20174;-96
2022/09/16 05:01:28;;;;;;;6.57;3.70;;;15.80;99.90;;;;;;6090829;23;20176;-96
2022/09/16 05:04:04;;;;;;;4.50;3.23;;;15.80;99.90;;;;;;6093271;23;20207;-95
2022/09/16 05:06:38;;;;;;;10.53;3.13;;;15.70;99.90;;;;;;6091074;23;20175;-96
2022/09/16 05:09:13;;;;;;;7.00;3.47;;;15.70;99.90;;;;;;6089786;23;20189;-97
2022/09/16 05:11:46;;;;;;;5.40;2.83;;;15.70;99.90;;;;;;6067176;23;20186;-96
2022/09/16 05:14:21;;;;;;;7.00;3.30;;;15.60;99.90;;;;;;6090943;23;20171;-96
2022/09/16 05:16:54;;;;;;;5.33;3.10;;;15.60;99.90;;;;;;6091699;23;20260;-96
2022/09/16 05:19:26;;;;;;;3.00;2.70;;;15.50;99.90;;;;;;6091628;23;20186;-96
2022/09/16 05:22:01;;;;;;;8.93;2.77;;;15.50;99.90;;;;;;6087703;23;20183;-96
2022/09/16 05:24:39;;;;;;;3.93;2.00;;;15.40;99.90;;;;;;6086677;23;20267;-96
2022/09/16 05:27:12;;;;;;;7.23;2.57;;;15.40;99.90;;;;;;6086657;23;20206;-96
2022/09/16 05:29:51;;;;;;;3.00;2.13;;;15.40;99.90;;;;;;6062186;23;20195;-96
2022/09/16 05:32:23;;;;;;;6.90;2.83;;;15.40;99.90;;;;;;6085292;23;20243;-96
2022/09/16 05:34:56;;;;;;;2.40;1.83;;;15.40;99.90;;;;;;6072238;23;20270;-96
2022/09/16 05:37:29;;;;;;;9.87;2.23;;;15.40;99.90;;;;;;6078536;23;20258;-96
2022/09/16 05:40:00;;;;;;;3.87;2.20;;;15.40;99.90;;;;;;6074761;23;20510;-96
2022/09/16 05:42:33;;;;;;;5.40;2.13;;;15.30;99.90;;;;;;6075659;23;20488;-96
2022/09/16 05:45:10;;;;;;;4.63;2.20;;;15.30;99.90;;;;;;6086919;23;20204;-96
2022/09/16 05:47:43;;;;;;;4.60;2.00;;;15.20;99.90;;;;;;6085057;23;20175;-96
2022/09/16 05:50:15;;;;;;;5.07;2.13;;;15.20;99.90;;;;;;6084635;23;20514;-96
2022/09/16 05:52:48;;;;;;;5.77;1.90;;;15.20;99.90;;;;;;6086111;23;20231;-96
2022/09/16 05:55:19;;;;;;;2.33;1.60;;;15.10;99.90;;;;;;6080059;23;20180;-96
2022/09/16 05:57:51;;;;;;;4.03;1.90;;;15.00;99.90;;;;;;6080736;23;20176;-96
2022/09/16 06:00:27;;;;;;;5.17;1.87;;;14.90;99.90;;;;;;6083519;23;20192;-96
2022/09/16 06:03:00;;;;;;;2.17;1.70;;;14.90;99.90;;;;;;6072935;23;20179;-96
2022/09/16 06:05:33;;;;;;;3.13;1.70;;;14.80;99.90;;;;;;6077135;23;20183;-96
2022/09/16 06:08:05;;;;;;;2.60;1.60;;;14.80;99.90;;;;;;6086971;23;20187;-96
2022/09/16 06:10:40;;;;;;;3.80;1.70;;;14.80;99.90;;;;;;6085442;23;20236;-95
2022/09/16 06:13:12;;;;;;;2.40;1.50;;;14.70;99.90;;;;;;6085663;23;20177;-96
2022/09/16 06:15:53;;;;;;;3.83;2.20;;;14.60;99.90;;;;;;6078156;23;20179;-96
2022/09/16 06:18:26;;;;;;;3.73;1.73;;;14.60;99.90;;;;;;6084394;23;20168;-96
2022/09/16 06:20:59;;;;;;;3.27;1.60;;;14.50;99.90;;;;;;6084152;23;20172;-96
2022/09/16 06:23:30;;;;;;;3.23;1.60;;;14.60;99.90;;;;;;6081911;23;20176;-96
2022/09/16 06:26:03;;;;;;;3.43;1.50;;;14.60;99.90;;;;;;6087799;23;20175;-96
2022/09/16 06:28:37;;;;;;;2.97;1.60;;;14.50;99.90;;;;;;6093436;23;20250;-96
2022/09/16 06:31:13;;;;;;;4.03;1.43;;;14.50;99.90;;;;;;6090501;23;20179;-96
2022/09/16 06:33:46;;;;;;;2.80;1.70;;;14.50;99.90;;;;;;6081284;23;20175;-94
2022/09/16 06:36:28;;;;;;;3.50;1.83;;;14.40;99.90;;;;;;6063557;23;20250;-96
2022/09/16 06:39:00;;;;;;;2.87;1.60;;;14.40;99.90;;;;;;6086460;23;20204;-96
2022/09/16 06:41:34;;;;;;;3.07;1.70;;;14.40;99.90;;;;;;6074270;23;20184;-96
2022/09/16 06:44:07;;;;;;;4.17;1.70;;;14.50;99.90;;;;;;6049912;23;20192;-96
2022/09/16 06:46:44;;;;;;;3.03;1.43;;;14.50;99.90;;;;;;6078526;23;20254;-96
2022/09/16 06:49:15;;;;;;;3.50;1.50;;;14.50;99.90;;;;;;6078252;23;20227;-96
2022/09/16 06:51:50;;;;;;;4.00;1.90;;;14.40;99.90;;;;;;6079775;23;20228;-96
2022/09/16 06:54:23;;;;;;;3.77;2.00;;;14.40;99.90;;;;;;6094733;23;20215;-96
2022/09/16 06:56:54;;;;;;;4.03;1.83;;;14.40;99.90;;;;;;6094970;23;20184;-96
2022/09/16 06:59:29;;;;;;;2.57;1.43;;;14.50;99.90;;;;;;6094659;23;20234;-96
2022/09/16 07:02:06;;;;;;;1.87;1.47;;;14.50;99.90;;;;;;6070868;23;20209;-96
2022/09/16 07:04:40;;;;;;;4.33;1.63;;;14.50;99.90;;;;;;6084273;23;20196;-96
2022/09/16 07:07:13;;;;;;;3.63;1.80;;;14.50;99.90;;;;;;6056344;23;20190;-96
2022/09/16 07:09:47;;;;;;;3.87;1.83;;;14.50;99.90;;;;;;6081396;23;20167;-96
2022/09/16 07:12:22;;;;;;;2.27;1.50;;;14.40;99.90;;;;;;6084407;23;20202;-96
2022/09/16 07:14:53;;;;;;;2.40;1.77;;;14.40;99.90;;;;;;6056596;23;20171;-96
2022/09/16 07:17:29;;;;;;;3.37;1.50;;;14.50;99.90;;;;;;6075818;23;20180;-96
2022/09/16 07:20:01;;;;;;;5.17;1.90;;;14.50;99.90;;;;;;6077534;23;20179;-96
2022/09/16 07:22:33;;;;;;;3.67;1.77;;;14.50;99.90;;;;;;6077152;23;20184;-96
2022/09/16 07:25:06;;;;;;;2.27;1.40;;;14.50;99.90;;;;;;6061248;23;20283;-96
2022/09/16 07:27:37;;;;;;;6.30;1.73;;;14.50;99.90;;;;;;6034259;23;20190;-96
2022/09/16 07:30:10;;;;;;;3.47;1.60;;;14.50;99.90;;;;;;6072553;23;20179;-96
2022/09/16 07:32:45;;;;;;;4.53;1.53;;;14.50;99.90;;;;;;6072686;23;20180;-96
2022/09/16 07:35:18;;;;;;;3.27;1.63;;;14.60;99.90;;;;;;6074443;23;20565;-96
2022/09/16 07:37:51;;;;;;;2.53;1.80;;;14.60;99.90;;;;;;6076238;23;20172;-96
2022/09/16 07:40:25;;;;;;;3.00;1.70;;;14.60;99.90;;;;;;6079157;23;20175;-96
2022/09/16 07:43:00;;;;;;;2.63;1.60;;;14.60;99.90;;;;;;6076369;23;20172;-96
2022/09/16 07:45:32;;;;;;;3.37;1.60;;;14.60;99.90;;;;;;6076031;23;20291;-96
2022/09/16 07:48:08;;;;;;;3.97;1.70;;;14.50;99.90;;;;;;6029189;23;20236;-96
2022/09/16 07:50:39;;;;;;;2.13;1.43;;;14.50;99.90;;;;;;6076157;23;20172;-96
2022/09/16 07:53:11;;;;;;;2.93;1.77;;;14.60;99.90;;;;;;6074518;23;20175;-96
2022/09/16 07:55:42;;;;;;;2.50;1.50;;;14.60;99.90;;;;;;6074844;23;20718;-96
2022/09/16 07:58:14;;;;;;;4.53;1.57;;;14.50;99.90;;;;;;6076167;23;20596;-95
2022/09/16 08:00:47;;;;;;;4.30;1.90;;;14.50;99.90;;;;;;6082690;23;20206;-96
2022/09/16 08:03:21;;;;;;;1.40;1.30;;;14.50;99.90;;;;;;6080376;23;20182;-96
2022/09/16 08:06:00;;;;;;;3.57;1.70;;;14.60;99.90;;;;;;6074601;23;20661;-96
2022/09/16 08:08:32;;;;;;;2.50;1.43;;;14.60;99.90;;;;;;6075823;23;20175;-96
2022/09/16 08:11:05;;;;;;;2.47;1.47;;;14.60;99.90;;;;;;6078026;23;20198;-96
2022/09/16 08:13:42;;;;;;;4.60;1.90;;;14.60;99.90;;;;;;6079159;23;20215;-96
2022/09/16 08:16:18;;;;;;;3.70;1.60;;;14.60;99.90;;;;;;6080147;23;20235;-96
2022/09/16 08:18:57;;;;;;;4.33;1.40;;;14.60;99.90;;;;;;6078663;23;20534;-96
2022/09/16 08:21:31;;;;;;;2.97;1.97;;;14.60;99.90;;;;;;6083487;23;20172;-96
2022/09/16 08:24:04;;;;;;;1.50;1.27;;;14.60;99.90;;;;;;6055640;23;20188;-96
2022/09/16 08:26:37;;;;;;;4.80;1.37;;;14.60;99.90;;;;;;6079845;23;20199;-96
2022/09/16 08:29:08;;;;;;;2.83;1.60;;;14.60;99.90;;;;;;6077884;23;20183;-96
2022/09/16 08:31:43;;;;;;;3.00;1.60;;;14.60;99.90;;;;;;6052475;23;20503;-96
2022/09/16 08:34:19;;;;;;;3.20;1.60;;;14.60;99.90;;;;;;6079184;23;20179;-96
2022/09/16 08:36:52;;;;;;;1.87;1.37;;;14.70;99.90;;;;;;6052963;23;20619;-96
2022/09/16 08:39:25;;;;;;;2.67;1.67;;;14.60;99.90;;;;;;6076529;23;20225;-96
2022/09/16 08:42:48;;;;;;;2.67;1.50;;;14.50;99.90;;;;;;6049054;23;20176;-96
2022/09/16 08:45:28;;;;;;;2.97;1.60;;;14.50;99.90;;;;;;6050256;23;20595;-96
2022/09/16 08:48:14;;;;;;;3.70;1.63;;;14.60;99.90;;;;;;6072864;23;20237;-96
2022/09/16 08:50:50;;;;;;;2.60;1.37;;;14.60;99.90;;;;;;6073137;23;20250;-96
2022/09/16 08:53:28;;;;;;;2.60;1.87;;;14.60;99.90;;;;;;6073022;23;20555;-96
2022/09/16 08:56:03;;;;;;;2.57;1.53;;;14.60;99.90;;;;;;6073738;23;20175;-96
2022/09/16 08:58:41;;;;;;;1.83;1.27;;;14.60;99.90;;;;;;6073950;23;20210;-96
2022/09/16 09:01:20;;;;;;;5.23;1.70;;;14.50;99.90;;;;;;6073366;23;20258;-96
2022/09/16 09:03:56;;;;;;;6.43;1.80;;;14.60;99.90;;;;;;6072331;23;20254;-96
2022/09/16 09:06:50;;;;;;;3.57;2.00;;;14.60;99.90;;;;;;6071729;23;20290;-96
2022/09/16 09:09:44;;;;;;;3.17;1.70;;;14.60;99.90;;;;;;6075108;23;20191;-96
2022/09/16 09:12:23;;;;;;;2.73;1.60;;;14.60;99.90;;;;;;6076637;23;20179;-96
2022/09/16 09:15:19;;;;;;;2.53;1.50;;;14.60;99.90;;;;;;6077933;23;20325;-96
2022/09/16 09:18:16;;;;;;;2.13;1.40;;;14.60;99.90;;;;;;6073950;23;20195;-96
2022/09/16 09:20:58;;;;;;;2.27;1.63;;;14.70;99.90;;;;;;6059582;23;20184;-96
2022/09/16 09:23:50;;;;;;;4.40;1.60;;;14.60;99.90;;;;;;6080617;23;20199;-96
2022/09/16 09:26:24;;;;;;;2.80;1.53;;;14.60;99.90;;;;;;6081331;23;20246;-96
2022/09/16 09:29:16;;;;;;;5.67;1.70;;;14.60;99.90;;;;;;6085332;23;20172;-96
2022/09/16 09:31:57;;;;;;;2.60;1.83;;;14.60;99.90;;;;;;6037575;23;20179;-96
2022/09/16 09:34:44;;;;;;;3.63;1.60;;;14.60;99.90;;;;;;6085282;23;20214;-96
2022/09/16 09:37:32;;;;;;;4.63;1.43;;;14.70;99.90;;;;;;6062347;23;20195;-96
2022/09/16 09:40:14;;;;;;;2.10;1.70;;;14.60;99.90;;;;;;6089594;23;20168;-96
2022/09/16 09:42:54;;;;;;;6.70;1.40;;;14.60;99.90;;;;;;6090938;23;20518;-96
2022/09/16 09:45:31;;;;;;;3.33;1.70;;;14.60;99.90;;;;;;6091331;23;20214;-96
2022/09/16 09:48:09;;;;;;;4.30;1.93;;;14.60;99.90;;;;;;6037661;23;20184;-96
2022/09/16 09:50:45;;;;;;;3.47;1.50;;;14.60;99.90;;;;;;6063725;23;20179;-96
2022/09/16 09:53:22;;;;;;;2.77;1.53;;;14.60;99.90;;;;;;6095623;23;20163;-96
2022/09/16 09:56:12;;;;;;;1.83;1.27;;;14.60;99.90;;;;;;6091302;23;20191;-96
2022/09/16 09:58:50;;;;;;;5.67;1.70;;;14.60;99.90;;;;;;6092039;23;20187;-96
2022/09/16 10:01:22;;;;;;;1.67;1.30;;;14.60;99.90;;;;;;6070998;23;20164;-96
2022/09/16 10:03:58;;;;;;;2.00;1.30;;;14.70;99.90;;;;;;6094658;23;20227;-96
2022/09/16 10:06:34;;;;;;;2.47;1.30;;;14.70;99.90;;;;;;6098960;23;20209;-96
2022/09/16 10:09:07;;;;;;;3.23;1.30;;;14.60;99.90;;;;;;6141421;23;20185;-96
2022/09/16 10:11:50;;;;;;;3.00;1.53;;;14.60;99.90;;;;;;6152238;23;20174;-96
2022/09/16 10:14:28;;;;;;;2.37;1.40;;;14.60;99.90;;;;;;6152864;23;20232;-92
2022/09/16 10:17:05;;;;;;;2.53;1.63;;;14.60;99.90;;;;;;6153265;23;20218;-96
2022/09/16 10:19:42;;;;;;;2.47;1.40;;;14.60;99.90;;;;;;6154155;23;20170;-96
2022/09/16 10:22:25;;;;;;;3.60;1.50;;;14.60;99.90;;;;;;6152057;23;20312;-96
2022/09/16 10:25:05;;;;;;;3.53;1.60;;;14.60;99.90;;;;;;6152207;23;20174;-96
2022/09/16 10:27:41;;;;;;;4.10;1.53;;;14.60;99.90;;;;;;6139650;23;20229;-96
2022/09/16 10:30:17;;;;;;;2.07;1.30;;;14.60;99.90;;;;;;6145507;23;20170;-96
2022/09/16 10:32:55;;;;;;;2.57;1.40;;;14.60;99.90;;;;;;6139094;23;20241;-96
2022/09/16 10:35:31;;;;;;;2.63;1.50;;;14.60;99.90;;;;;;6136436;23;20233;-96
2022/09/16 10:38:11;;;;;;;1.97;1.20;;;14.60;99.90;;;;;;6137723;23;20549;-96
2022/09/16 10:40:53;;;;;;;1.83;1.23;;;14.60;99.90;;;;;;6144339;23;20178;-96
2022/09/16 10:43:33;;;;;;;1.50;1.40;;;14.60;99.90;;;;;;6144295;23;20181;-96
2022/09/16 10:46:07;;;;;;;4.23;1.73;;;14.60;99.90;;;;;;6145023;23;20194;-96
2022/09/16 10:48:45;;;;;;;2.93;1.73;;;14.70;99.90;;;;;;6144058;23;20170;-96
2022/09/16 10:51:26;;;;;;;1.97;1.20;;;14.60;99.90;;;;;;6138404;23;20198;-96
2022/09/16 10:54:00;;;;;;;2.17;1.13;;;14.60;99.90;;;;;;6119929;23;20163;-96
2022/09/16 10:56:33;;;;;;;4.70;1.97;;;14.60;99.90;;;;;;6140008;23;20201;-96
2022/09/16 10:59:14;;;;;;;2.67;1.47;;;14.50;99.90;;;;;;6117296;23;20177;-96
2022/09/16 11:01:53;;;;;;;2.23;1.20;;;14.50;99.90;;;;;;6143038;23;20174;-96
2022/09/16 11:04:49;;;;;;;3.23;1.77;;;14.50;99.90;;;;;;6123920;23;20209;-95
2022/09/16 11:07:33;;;;;;;2.20;1.50;;;14.50;99.90;;;;;;6148142;23;20210;-96
2022/09/16 11:10:23;;;;;;;4.30;1.60;;;14.50;99.90;;;;;;6148018;23;20175;-96
2022/09/16 11:13:20;;;;;;;3.47;1.60;;;14.40;99.90;;;;;;6138457;23;20238;-96
2022/09/16 11:16:15;;;;;;;2.30;1.20;;;14.50;99.90;;;;;;6150862;23;20171;-96
2022/09/16 11:18:55;;;;;;;3.43;1.50;;;14.50;99.90;;;;;;6143539;23;20167;-96
2022/09/16 11:21:58;;;;;;;3.40;1.20;;;14.50;99.90;;;;;;6098088;23;20174;-96
2022/09/16 11:25:03;;;;;;;3.43;1.60;;;14.60;99.90;;;;;;6122235;23;20193;-96
2022/09/16 11:27:48;;;;;;;3.67;1.47;;;14.50;99.90;;;;;;6115637;23;20778;-96
2022/09/16 11:30:22;;;;;;;3.57;1.40;;;14.50;99.90;;;;;;6122050;23;20185;-96
2022/09/16 11:33:16;;;;;;;3.10;1.60;;;14.40;99.90;;;;;;6148083;23;20197;-96
2022/09/16 11:36:33;;;;;;;1.93;1.43;;;14.40;99.90;;;;;;6144875;23;20245;-96
2022/09/16 11:39:26;;;;;;;1.93;1.50;;;14.40;99.90;;;;;;5994471;23;20549;-96
2022/09/16 11:42:06;;;;;;;3.90;1.80;;;14.40;99.90;;;;;;6119007;23;20178;-96
2022/09/16 11:44:45;;;;;;;2.90;1.77;;;14.40;99.90;;;;;;6139396;23;20192;-96
2022/09/16 11:47:39;;;;;;;3.73;1.77;;;14.40;99.90;;;;;;6136858;23;20233;-96
2022/09/16 11:50:36;;;;;;;2.33;1.50;;;14.30;99.90;;;;;;6134820;23;20222;-96
2022/09/16 11:53:36;;;;;;;5.57;1.77;;;14.30;99.90;;;;;;6126672;23;20189;-96
2022/09/16 11:56:18;;;;;;;2.47;1.60;;;14.40;99.90;;;;;;6133286;23;20181;-96
2022/09/16 11:58:55;;;;;;;3.63;1.50;;;14.40;99.90;;;;;;6133978;23;20179;-96
2022/09/16 12:01:33;;;;;;;3.13;1.47;;;14.40;99.90;;;;;;6136226;23;20204;-96
2022/09/16 12:04:13;;;;;;;2.40;1.10;;;14.40;99.90;;;;;;6136060;23;20180;-96
2022/09/16 12:06:57;;;;;;;3.17;1.30;;;14.40;99.90;;;;;;6135127;23;20673;-96
2022/09/16 12:09:38;;;;;;;2.70;1.60;;;14.40;99.90;;;;;;6136632;23;20222;-96
2022/09/16 12:12:14;;;;;;;2.80;1.47;;;14.40;99.90;;;;;;6134502;23;20179;-96
2022/09/16 12:14:52;;;;;;;2.80;1.57;;;14.40;99.90;;;;;;6135184;23;20238;-96
2022/09/16 12:17:28;;;;;;;3.97;1.60;;;14.40;99.90;;;;;;6117919;23;20201;-96
2022/09/16 12:20:01;;;;;;;3.43;2.00;;;14.40;99.90;;;;;;6127933;23;20177;-96
2022/09/16 12:22:41;;;;;;;2.20;1.60;;;14.30;99.90;;;;;;6143082;23;20194;-96
2022/09/16 12:25:16;;;;;;;1.77;1.10;;;14.40;99.90;;;;;;6140730;23;20171;-96
2022/09/16 12:27:54;;;;;;;2.30;1.30;;;14.30;99.90;;;;;;6152704;23;20196;-96
2022/09/16 12:30:32;;;;;;;1.80;1.33;;;14.30;99.90;;;;;;6127319;23;20170;-96
2022/09/16 12:33:14;;;;;;;2.87;1.50;;;14.30;99.90;;;;;;6127176;23;20166;-96
2022/09/16 12:35:56;;;;;;;2.70;1.50;;;14.30;99.90;;;;;;6153023;23;20174;-96
2022/09/16 12:38:44;;;;;;;2.83;1.20;;;14.40;99.90;;;;;;6079400;23;20222;-96
2022/09/16 12:41:50;;;;;;;4.17;1.30;;;14.30;99.90;;;;;;6110558;23;20178;-96
2022/09/16 12:44:58;;;;;;;3.73;1.43;;;14.30;99.90;;;;;;6105226;23;20179;-96
2022/09/16 12:47:57;;;;;;;2.93;1.70;;;14.40;99.90;;;;;;6107208;23;20235;-96
2022/09/16 12:50:50;;;;;;;1.93;1.40;;;14.30;99.90;;;;;;6089547;23;20226;-96
2022/09/16 12:54:03;;;;;;;2.97;1.60;;;14.40;99.90;;;;;;6114714;23;20179;-96
2022/09/16 12:57:05;;;;;;;2.40;1.33;;;14.30;99.90;;;;;;6114435;23;20202;-96
2022/09/16 12:59:50;;;;;;;3.47;1.53;;;14.30;99.90;;;;;;6099015;23;20171;-96
2022/09/16 13:02:28;;;;;;;2.40;1.20;;;14.40;99.90;;;;;;6123137;23;20197;-96
2022/09/16 13:05:14;;;;;;;3.57;1.40;;;14.30;99.90;;;;;;6123909;23;20210;-96
2022/09/16 13:07:52;;;;;;;2.93;1.30;;;14.30;99.90;;;;;;6123346;23;20221;-96
2022/09/16 13:10:32;;;;;;;2.80;1.30;;;14.30;99.90;;;;;;6123829;23;20179;-96
2022/09/16 13:13:34;;;;;;;1.37;1.20;;;14.30;99.90;;;;;;6123292;23;20196;-96
2022/09/16 13:18:46;;;;;;;3.17;1.50;;;14.30;99.90;;;;;;6123586;23;20266;-96
2022/09/16 13:21:25;;;;;;;3.33;1.50;;;14.40;99.90;;;;;;6123743;23;20162;-96
2022/09/16 13:24:05;;;;;;;1.60;1.50;;;14.30;99.90;;;;;;6122768;23;20198;-95
2022/09/16 13:26:43;;;;;;;3.20;1.20;;;14.40;99.90;;;;;;6095818;23;20175;-96
2022/09/16 13:29:44;;;;;;;1.77;1.30;;;14.40;99.90;;;;;;6119707;23;20191;-96
2022/09/16 13:32:42;;;;;;;2.80;1.50;;;14.50;99.90;;;;;;6117903;23;20183;-96
2022/09/16 13:35:38;;;;;;;3.23;1.40;;;14.40;99.90;;;;;;6122957;23;20187;-96
2022/09/16 13:38:26;;;;;;;1.43;1.10;;;14.40;99.90;;;;;;6123001;23;20179;-96
2022/09/16 13:41:04;;;;;;;3.47;1.50;;;14.40;99.90;;;;;;6111846;23;20198;-96
2022/09/16 13:43:50;;;;;;;2.60;1.33;;;14.40;99.90;;;;;;6118844;23;20165;-96
2022/09/16 13:46:35;;;;;;;3.40;1.40;;;14.40;99.90;;;;;;6089090;23;20167;-96
2022/09/16 13:49:24;;;;;;;5.20;1.20;;;14.40;99.90;;;;;;6078097;23;20198;-96
2022/09/16 13:51:57;;;;;;;2.33;1.13;;;14.40;99.90;;;;;;6103214;23;20195;-96
2022/09/16 13:54:33;;;;;;;2.30;1.40;;;14.40;99.90;;;;;;6107161;23;20207;-96
2022/09/16 13:57:55;;;;;;;2.60;1.40;;;14.40;99.90;;;;;;6106991;23;20641;-96
2022/09/16 14:00:29;;;;;;;2.20;1.60;;;14.40;99.90;;;;;;6105907;23;20187;-96
2022/09/16 14:03:37;;;;;;;1.87;1.20;;;14.40;99.90;;;;;;6105795;23;20178;-96
2022/09/16 14:06:29;;;;;;;2.20;1.10;;;14.40;99.90;;;;;;6106054;23;20171;-96
2022/09/16 14:09:07;;;;;;;2.03;1.20;;;14.40;99.90;;;;;;6109665;23;20207;-96
2022/09/16 14:11:50;;;;;;;1.93;1.17;;;14.30;99.90;;;;;;6107485;23;20190;-96
2022/09/16 14:14:26;;;;;;;2.43;1.20;;;14.40;99.90;;;;;;6085171;23;20512;-96
2022/09/16 14:17:23;;;;;;;3.10;1.40;;;14.30;99.90;;;;;;6121056;23;20219;-96
2022/09/16 14:20:00;;;;;;;1.63;1.30;;;14.20;99.90;;;;;;6121687;23;20195;-96
2022/09/16 14:22:33;;;;;;;2.23;1.30;;;14.20;99.90;;;;;;6121523;23;20208;-96
2022/09/16 14:25:05;;;;;;;2.50;1.30;;;14.30;99.90;;;;;;6096271;23;20179;-96
2022/09/16 14:28:19;;;;;;;1.93;1.47;;;14.30;99.90;;;;;;6121001;23;20218;-96
2022/09/16 14:30:56;;;;;;;2.70;1.40;;;14.30;99.90;;;;;;6118180;23;20194;-96
2022/09/16 14:33:33;;;;;;;2.03;1.50;;;14.30;99.90;;;;;;6121985;23;20198;-96
2022/09/16 14:36:18;;;;;;;3.33;1.97;;;14.30;99.90;;;;;;6122866;23;20198;-96